Terminal Aerodrome Forecast
Issued by NWS

Home | Current Version | Previous Version | Text Only | Print | Product List | Glossary On
Versions: 1 2 3 4 5 6 7 8 9 10 11 12 13 14 15 16 17 18 19 20 21
000
FTUS43 KSGF 071720
TAFJLN
TAF
KJLN 071720Z 0718/0818 08004KT P6SM -SN OVC060
     FM072000 03011KT 5SM -SN OVC025
     FM072300 36010KT 3SM -SN OVC015
     FM080200 35010KT P6SM OVC015
     FM080300 35009KT P6SM VCSH BKN025
     FM080400 34009KT P6SM BKN070
     FM080500 34009KT P6SM SKC=

USA.gov is the U.S. government's official web portal to all federal, state and local government web resources and services.